sensor_id;sensor_type;location;lat;lon;timestamp;temperature;humidity
39017;DHT22;24784;45.582;5.276;2022-08-19T00:01:12;18.90;99.90
39017;DHT22;24784;45.582;5.276;2022-08-19T00:03:38;18.90;99.90
39017;DHT22;24784;45.582;5.276;2022-08-19T00:06:04;18.90;99.90
39017;DHT22;24784;45.582;5.276;2022-08-19T00:08:30;18.90;99.90
39017;DHT22;24784;45.582;5.276;2022-08-19T00:10:56;18.90;99.90
39017;DHT22;24784;45.582;5.276;2022-08-19T00:13:22;18.90;99.90
39017;DHT22;24784;45.582;5.276;2022-08-19T00:15:48;19.00;99.90
39017;DHT22;24784;45.582;5.276;2022-08-19T00:18:13;19.00;99.90
39017;DHT22;24784;45.582;5.276;2022-08-19T00:20:39;19.00;99.90
39017;DHT22;24784;45.582;5.276;2022-08-19T00:23:06;18.90;99.90
39017;DHT22;24784;45.582;5.276;2022-08-19T00:25:32;19.00;99.90
39017;DHT22;24784;45.582;5.276;2022-08-19T00:27:58;19.00;99.90
39017;DHT22;24784;45.582;5.276;2022-08-19T00:30:24;18.80;99.90
39017;DHT22;24784;45.582;5.276;2022-08-19T00:32:52;18.70;99.90
39017;DHT22;24784;45.582;5.276;2022-08-19T00:35:20;18.70;99.90
39017;DHT22;24784;45.582;5.276;2022-08-19T00:37:47;18.70;99.90
39017;DHT22;24784;45.582;5.276;2022-08-19T00:40:12;18.70;99.90
39017;DHT22;24784;45.582;5.276;2022-08-19T00:42:38;18.60;99.90
39017;DHT22;24784;45.582;5.276;2022-08-19T00:45:08;18.50;99.90
39017;DHT22;24784;45.582;5.276;2022-08-19T00:47:36;18.50;99.90
39017;DHT22;24784;45.582;5.276;2022-08-19T00:50:02;18.50;99.90
39017;DHT22;24784;45.582;5.276;2022-08-19T00:52:39;18.50;99.90
39017;DHT22;24784;45.582;5.276;2022-08-19T00:55:07;18.50;99.90
39017;DHT22;24784;45.582;5.276;2022-08-19T00:57:38;18.60;99.90
39017;DHT22;24784;45.582;5.276;2022-08-19T01:00:05;18.40;99.90
39017;DHT22;24784;45.582;5.276;2022-08-19T01:02:31;18.50;99.90
39017;DHT22;24784;45.582;5.276;2022-08-19T01:04:57;18.50;99.90
39017;DHT22;24784;45.582;5.276;2022-08-19T01:07:24;18.50;99.90
39017;DHT22;24784;45.582;5.276;2022-08-19T01:09:50;18.50;99.90
39017;DHT22;24784;45.582;5.276;2022-08-19T01:12:15;18.50;99.90
39017;DHT22;24784;45.582;5.276;2022-08-19T01:14:42;18.50;99.90
39017;DHT22;24784;45.582;5.276;2022-08-19T01:17:09;18.60;99.90
39017;DHT22;24784;45.582;5.276;2022-08-19T01:19:36;18.50;99.90
39017;DHT22;24784;45.582;5.276;2022-08-19T01:22:08;18.40;99.90
39017;DHT22;24784;45.582;5.276;2022-08-19T01:24:36;18.50;99.90
39017;DHT22;24784;45.582;5.276;2022-08-19T01:27:03;18.60;99.90
39017;DHT22;24784;45.582;5.276;2022-08-19T01:29:29;18.50;99.90
39017;DHT22;24784;45.582;5.276;2022-08-19T01:31:54;18.40;99.90
39017;DHT22;24784;45.582;5.276;2022-08-19T01:34:20;18.40;99.90
39017;DHT22;24784;45.582;5.276;2022-08-19T01:36:47;18.40;99.90
39017;DHT22;24784;45.582;5.276;2022-08-19T01:39:22;18.30;99.90
39017;DHT22;24784;45.582;5.276;2022-08-19T01:41:48;18.40;99.90
39017;DHT22;24784;45.582;5.276;2022-08-19T01:44:15;18.30;99.90
39017;DHT22;24784;45.582;5.276;2022-08-19T01:46:41;18.30;99.90
39017;DHT22;24784;45.582;5.276;2022-08-19T01:49:07;18.30;99.90
39017;DHT22;24784;45.582;5.276;2022-08-19T01:51:33;18.30;99.90
39017;DHT22;24784;45.582;5.276;2022-08-19T01:53:59;18.30;99.90
39017;DHT22;24784;45.582;5.276;2022-08-19T01:56:24;18.20;99.90
39017;DHT22;24784;45.582;5.276;2022-08-19T01:58:55;18.30;99.90
39017;DHT22;24784;45.582;5.276;2022-08-19T02:01:21;18.30;99.90
39017;DHT22;24784;45.582;5.276;2022-08-19T02:03:47;18.30;99.90
39017;DHT22;24784;45.582;5.276;2022-08-19T02:06:12;18.40;99.90
39017;DHT22;24784;45.582;5.276;2022-08-19T02:08:38;18.30;99.90
39017;DHT22;24784;45.582;5.276;2022-08-19T02:11:04;18.30;99.90
39017;DHT22;24784;45.582;5.276;2022-08-19T02:13:30;18.30;99.90
39017;DHT22;24784;45.582;5.276;2022-08-19T02:15:56;18.20;99.90
39017;DHT22;24784;45.582;5.276;2022-08-19T02:18:23;18.30;99.90
39017;DHT22;24784;45.582;5.276;2022-08-19T02:20:48;18.20;99.90
39017;DHT22;24784;45.582;5.276;2022-08-19T02:23:14;18.20;99.90
39017;DHT22;24784;45.582;5.276;2022-08-19T02:25:40;18.30;99.90
39017;DHT22;24784;45.582;5.276;2022-08-19T02:28:06;18.20;99.90
39017;DHT22;24784;45.582;5.276;2022-08-19T02:30:32;18.20;99.90
39017;DHT22;24784;45.582;5.276;2022-08-19T02:32:58;18.20;99.90
39017;DHT22;24784;45.582;5.276;2022-08-19T02:35:23;18.20;99.90
39017;DHT22;24784;45.582;5.276;2022-08-19T02:37:49;18.20;99.90
39017;DHT22;24784;45.582;5.276;2022-08-19T02:40:33;18.20;99.90
39017;DHT22;24784;45.582;5.276;2022-08-19T02:43:00;18.30;99.90
39017;DHT22;24784;45.582;5.276;2022-08-19T02:45:26;18.30;99.90
39017;DHT22;24784;45.582;5.276;2022-08-19T02:47:52;18.30;99.90
39017;DHT22;24784;45.582;5.276;2022-08-19T02:50:18;18.30;99.90
39017;DHT22;24784;45.582;5.276;2022-08-19T02:52:43;18.30;99.90
39017;DHT22;24784;45.582;5.276;2022-08-19T02:55:10;18.30;99.90
39017;DHT22;24784;45.582;5.276;2022-08-19T02:57:35;18.30;99.90
39017;DHT22;24784;45.582;5.276;2022-08-19T03:00:03;18.30;99.90
39017;DHT22;24784;45.582;5.276;2022-08-19T03:02:29;18.30;99.90
39017;DHT22;24784;45.582;5.276;2022-08-19T03:04:55;18.20;99.90
39017;DHT22;24784;45.582;5.276;2022-08-19T03:07:21;18.20;99.90
39017;DHT22;24784;45.582;5.276;2022-08-19T03:09:47;18.30;99.90
39017;DHT22;24784;45.582;5.276;2022-08-19T03:12:13;18.30;99.90
39017;DHT22;24784;45.582;5.276;2022-08-19T03:14:38;18.30;99.90
39017;DHT22;24784;45.582;5.276;2022-08-19T03:17:04;18.30;99.90
39017;DHT22;24784;45.582;5.276;2022-08-19T03:19:30;18.30;99.90
39017;DHT22;24784;45.582;5.276;2022-08-19T03:21:57;18.30;99.90
39017;DHT22;24784;45.582;5.276;2022-08-19T03:24:23;18.20;99.90
39017;DHT22;24784;45.582;5.276;2022-08-19T03:26:53;18.20;99.90
39017;DHT22;24784;45.582;5.276;2022-08-19T03:29:26;18.20;99.90
39017;DHT22;24784;45.582;5.276;2022-08-19T03:31:52;18.20;99.90
39017;DHT22;24784;45.582;5.276;2022-08-19T03:34:25;18.20;99.90
39017;DHT22;24784;45.582;5.276;2022-08-19T03:36:55;18.20;99.90
39017;DHT22;24784;45.582;5.276;2022-08-19T03:39:21;18.20;99.90
39017;DHT22;24784;45.582;5.276;2022-08-19T03:41:48;18.20;99.90
39017;DHT22;24784;45.582;5.276;2022-08-19T03:44:19;18.20;99.90
39017;DHT22;24784;45.582;5.276;2022-08-19T03:46:46;18.00;99.90
39017;DHT22;24784;45.582;5.276;2022-08-19T03:49:13;18.00;99.90
39017;DHT22;24784;45.582;5.276;2022-08-19T03:51:38;17.90;99.90
39017;DHT22;24784;45.582;5.276;2022-08-19T03:54:05;17.90;99.90
39017;DHT22;24784;45.582;5.276;2022-08-19T03:56:32;18.00;99.90
39017;DHT22;24784;45.582;5.276;2022-08-19T03:58:59;18.00;99.90
39017;DHT22;24784;45.582;5.276;2022-08-19T04:01:26;18.00;99.90
39017;DHT22;24784;45.582;5.276;2022-08-19T04:03:52;18.10;99.90
39017;DHT22;24784;45.582;5.276;2022-08-19T04:06:20;18.10;99.90
39017;DHT22;24784;45.582;5.276;2022-08-19T04:08:47;18.00;99.90
39017;DHT22;24784;45.582;5.276;2022-08-19T04:11:14;18.10;99.90
39017;DHT22;24784;45.582;5.276;2022-08-19T04:13:40;18.10;99.90
39017;DHT22;24784;45.582;5.276;2022-08-19T04:16:07;18.00;99.90
39017;DHT22;24784;45.582;5.276;2022-08-19T04:18:34;18.00;99.90
39017;DHT22;24784;45.582;5.276;2022-08-19T04:20:59;18.00;99.90
39017;DHT22;24784;45.582;5.276;2022-08-19T04:23:26;17.80;99.90
39017;DHT22;24784;45.582;5.276;2022-08-19T04:25:53;17.90;99.90
39017;DHT22;24784;45.582;5.276;2022-08-19T04:28:19;17.90;99.90
39017;DHT22;24784;45.582;5.276;2022-08-19T04:30:46;17.90;99.90
39017;DHT22;24784;45.582;5.276;2022-08-19T04:33:13;18.00;99.90
39017;DHT22;24784;45.582;5.276;2022-08-19T04:35:41;18.00;99.90
39017;DHT22;24784;45.582;5.276;2022-08-19T04:38:08;17.90;99.90
39017;DHT22;24784;45.582;5.276;2022-08-19T04:40:34;17.90;99.90
39017;DHT22;24784;45.582;5.276;2022-08-19T04:43:18;17.90;99.90
39017;DHT22;24784;45.582;5.276;2022-08-19T04:45:44;17.90;99.90
39017;DHT22;24784;45.582;5.276;2022-08-19T04:48:10;17.90;99.90
39017;DHT22;24784;45.582;5.276;2022-08-19T04:50:35;17.90;99.90
39017;DHT22;24784;45.582;5.276;2022-08-19T04:53:01;18.00;99.90
39017;DHT22;24784;45.582;5.276;2022-08-19T04:55:27;17.90;99.90
39017;DHT22;24784;45.582;5.276;2022-08-19T04:57:53;17.90;99.90
39017;DHT22;24784;45.582;5.276;2022-08-19T05:00:19;18.00;99.90
39017;DHT22;24784;45.582;5.276;2022-08-19T05:02:45;18.00;99.90
39017;DHT22;24784;45.582;5.276;2022-08-19T05:05:10;18.00;99.90
39017;DHT22;24784;45.582;5.276;2022-08-19T05:07:37;18.00;99.90
39017;DHT22;24784;45.582;5.276;2022-08-19T05:10:04;18.00;99.90
39017;DHT22;24784;45.582;5.276;2022-08-19T05:12:30;18.00;99.90
39017;DHT22;24784;45.582;5.276;2022-08-19T05:14:57;18.00;99.90
39017;DHT22;24784;45.582;5.276;2022-08-19T05:17:23;17.90;99.90
39017;DHT22;24784;45.582;5.276;2022-08-19T05:19:48;17.90;99.90
39017;DHT22;24784;45.582;5.276;2022-08-19T05:22:33;18.00;99.90
39017;DHT22;24784;45.582;5.276;2022-08-19T05:25:02;17.90;99.90
39017;DHT22;24784;45.582;5.276;2022-08-19T05:27:28;18.00;99.90
39017;DHT22;24784;45.582;5.276;2022-08-19T05:29:53;18.00;99.90
39017;DHT22;24784;45.582;5.276;2022-08-19T05:32:19;18.00;99.90
39017;DHT22;24784;45.582;5.276;2022-08-19T05:34:46;18.00;99.90
39017;DHT22;24784;45.582;5.276;2022-08-19T05:37:12;18.00;99.90
39017;DHT22;24784;45.582;5.276;2022-08-19T05:39:38;18.00;99.90
39017;DHT22;24784;45.582;5.276;2022-08-19T05:42:04;18.00;99.90
39017;DHT22;24784;45.582;5.276;2022-08-19T05:44:33;18.00;99.90
39017;DHT22;24784;45.582;5.276;2022-08-19T05:46:59;18.00;99.90
39017;DHT22;24784;45.582;5.276;2022-08-19T05:49:26;18.00;99.90
39017;DHT22;24784;45.582;5.276;2022-08-19T05:51:52;17.90;99.90
39017;DHT22;24784;45.582;5.276;2022-08-19T05:54:18;18.00;99.90
39017;DHT22;24784;45.582;5.276;2022-08-19T05:56:44;18.00;99.90
39017;DHT22;24784;45.582;5.276;2022-08-19T05:59:12;18.00;99.90
39017;DHT22;24784;45.582;5.276;2022-08-19T06:01:39;18.00;99.90
39017;DHT22;24784;45.582;5.276;2022-08-19T06:04:05;17.90;99.90
39017;DHT22;24784;45.582;5.276;2022-08-19T06:06:31;17.90;99.90
39017;DHT22;24784;45.582;5.276;2022-08-19T06:09:00;18.00;99.90
39017;DHT22;24784;45.582;5.276;2022-08-19T06:13:59;18.10;99.90
39017;DHT22;24784;45.582;5.276;2022-08-19T06:16:25;18.00;99.90
39017;DHT22;24784;45.582;5.276;2022-08-19T06:18:52;18.00;99.90
39017;DHT22;24784;45.582;5.276;2022-08-19T06:21:18;18.00;99.90
39017;DHT22;24784;45.582;5.276;2022-08-19T06:23:44;18.00;99.90
39017;DHT22;24784;45.582;5.276;2022-08-19T06:26:13;18.10;99.90
39017;DHT22;24784;45.582;5.276;2022-08-19T06:28:39;18.00;99.90
39017;DHT22;24784;45.582;5.276;2022-08-19T06:31:14;18.10;99.90
39017;DHT22;24784;45.582;5.276;2022-08-19T06:33:41;18.10;99.90
39017;DHT22;24784;45.582;5.276;2022-08-19T06:36:07;18.10;99.90
39017;DHT22;24784;45.582;5.276;2022-08-19T06:38:33;18.20;99.90
39017;DHT22;24784;45.582;5.276;2022-08-19T06:41:00;18.20;99.90
39017;DHT22;24784;45.582;5.276;2022-08-19T06:43:26;18.20;99.90
39017;DHT22;24784;45.582;5.276;2022-08-19T06:45:51;18.20;99.90
39017;DHT22;24784;45.582;5.276;2022-08-19T06:48:17;18.20;99.90
39017;DHT22;24784;45.582;5.276;2022-08-19T06:50:43;18.20;99.90
39017;DHT22;24784;45.582;5.276;2022-08-19T06:53:09;18.20;99.90
39017;DHT22;24784;45.582;5.276;2022-08-19T06:55:34;18.30;99.90
39017;DHT22;24784;45.582;5.276;2022-08-19T06:58:03;18.30;99.90
39017;DHT22;24784;45.582;5.276;2022-08-19T07:00:29;18.40;99.90
39017;DHT22;24784;45.582;5.276;2022-08-19T07:02:55;18.40;99.90
39017;DHT22;24784;45.582;5.276;2022-08-19T07:05:20;18.40;99.90
39017;DHT22;24784;45.582;5.276;2022-08-19T07:07:46;18.40;99.90
39017;DHT22;24784;45.582;5.276;2022-08-19T07:10:12;18.40;99.90
39017;DHT22;24784;45.582;5.276;2022-08-19T07:12:37;18.40;99.90
39017;DHT22;24784;45.582;5.276;2022-08-19T07:15:03;18.40;99.90
39017;DHT22;24784;45.582;5.276;2022-08-19T07:17:29;18.40;99.90
39017;DHT22;24784;45.582;5.276;2022-08-19T07:19:55;18.40;99.90
39017;DHT22;24784;45.582;5.276;2022-08-19T07:22:20;18.40;99.90
39017;DHT22;24784;45.582;5.276;2022-08-19T07:24:47;18.50;99.90
39017;DHT22;24784;45.582;5.276;2022-08-19T07:27:13;18.40;99.90
39017;DHT22;24784;45.582;5.276;2022-08-19T07:29:39;18.50;99.90
39017;DHT22;24784;45.582;5.276;2022-08-19T07:32:05;18.50;99.90
39017;DHT22;24784;45.582;5.276;2022-08-19T07:34:31;18.50;99.90
39017;DHT22;24784;45.582;5.276;2022-08-19T07:36:59;18.40;99.90
39017;DHT22;24784;45.582;5.276;2022-08-19T07:39:26;18.40;99.90
39017;DHT22;24784;45.582;5.276;2022-08-19T07:41:53;18.40;99.90
39017;DHT22;24784;45.582;5.276;2022-08-19T07:44:19;18.50;99.90
39017;DHT22;24784;45.582;5.276;2022-08-19T07:46:47;18.40;99.90
39017;DHT22;24784;45.582;5.276;2022-08-19T07:49:14;18.40;99.90
39017;DHT22;24784;45.582;5.276;2022-08-19T07:51:48;18.40;99.90
39017;DHT22;24784;45.582;5.276;2022-08-19T07:54:14;18.40;99.90
39017;DHT22;24784;45.582;5.276;2022-08-19T07:56:39;18.50;99.90
39017;DHT22;24784;45.582;5.276;2022-08-19T07:59:05;18.50;99.90
39017;DHT22;24784;45.582;5.276;2022-08-19T08:01:31;18.60;99.90
39017;DHT22;24784;45.582;5.276;2022-08-19T08:03:56;18.50;99.90
39017;DHT22;24784;45.582;5.276;2022-08-19T08:06:40;18.50;99.90
39017;DHT22;24784;45.582;5.276;2022-08-19T08:09:26;18.50;99.90
39017;DHT22;24784;45.582;5.276;2022-08-19T08:11:53;18.50;99.90
39017;DHT22;24784;45.582;5.276;2022-08-19T08:14:21;18.50;99.90
39017;DHT22;24784;45.582;5.276;2022-08-19T08:16:48;18.50;99.90
39017;DHT22;24784;45.582;5.276;2022-08-19T08:19:17;18.50;99.90
39017;DHT22;24784;45.582;5.276;2022-08-19T08:21:43;18.50;99.90
39017;DHT22;24784;45.582;5.276;2022-08-19T08:24:08;18.60;99.90
39017;DHT22;24784;45.582;5.276;2022-08-19T08:26:34;18.60;99.90
39017;DHT22;24784;45.582;5.276;2022-08-19T08:29:00;18.60;99.90
39017;DHT22;24784;45.582;5.276;2022-08-19T08:31:26;18.60;99.90
39017;DHT22;24784;45.582;5.276;2022-08-19T08:33:52;18.70;99.90
39017;DHT22;24784;45.582;5.276;2022-08-19T08:36:18;18.70;99.90
39017;DHT22;24784;45.582;5.276;2022-08-19T08:38:43;18.70;99.90
39017;DHT22;24784;45.582;5.276;2022-08-19T08:43:45;18.70;99.90
39017;DHT22;24784;45.582;5.276;2022-08-19T08:46:24;18.70;99.90
39017;DHT22;24784;45.582;5.276;2022-08-19T08:51:37;18.80;99.90
39017;DHT22;24784;45.582;5.276;2022-08-19T08:54:05;18.80;99.90
39017;DHT22;24784;45.582;5.276;2022-08-19T08:56:32;18.80;99.90
39017;DHT22;24784;45.582;5.276;2022-08-19T09:01:32;19.00;99.90
39017;DHT22;24784;45.582;5.276;2022-08-19T09:03:57;19.00;99.90
39017;DHT22;24784;45.582;5.276;2022-08-19T09:09:16;19.00;99.90
39017;DHT22;24784;45.582;5.276;2022-08-19T09:17:28;18.90;99.90
39017;DHT22;24784;45.582;5.276;2022-08-19T09:19:59;18.80;99.90
39017;DHT22;24784;45.582;5.276;2022-08-19T09:22:29;18.90;99.90
39017;DHT22;24784;45.582;5.276;2022-08-19T09:24:55;18.90;99.90
39017;DHT22;24784;45.582;5.276;2022-08-19T09:27:21;18.90;99.90
39017;DHT22;24784;45.582;5.276;2022-08-19T09:29:50;18.90;99.90
39017;DHT22;24784;45.582;5.276;2022-08-19T09:32:15;19.00;99.90
39017;DHT22;24784;45.582;5.276;2022-08-19T09:34:42;19.10;99.90
39017;DHT22;24784;45.582;5.276;2022-08-19T09:37:08;19.10;99.90
39017;DHT22;24784;45.582;5.276;2022-08-19T09:39:34;19.10;99.90
39017;DHT22;24784;45.582;5.276;2022-08-19T09:42:00;19.10;99.90
39017;DHT22;24784;45.582;5.276;2022-08-19T09:44:25;19.20;99.90
39017;DHT22;24784;45.582;5.276;2022-08-19T09:46:51;19.30;99.90
39017;DHT22;24784;45.582;5.276;2022-08-19T09:49:17;19.40;99.90
39017;DHT22;24784;45.582;5.276;2022-08-19T09:51:43;19.30;99.90
39017;DHT22;24784;45.582;5.276;2022-08-19T09:54:09;19.40;99.90
39017;DHT22;24784;45.582;5.276;2022-08-19T09:56:34;19.40;99.90
39017;DHT22;24784;45.582;5.276;2022-08-19T09:59:00;19.60;99.90
39017;DHT22;24784;45.582;5.276;2022-08-19T10:01:28;19.60;99.90
39017;DHT22;24784;45.582;5.276;2022-08-19T10:03:55;19.80;99.90
39017;DHT22;24784;45.582;5.276;2022-08-19T10:06:22;19.90;99.90
39017;DHT22;24784;45.582;5.276;2022-08-19T10:08:48;19.80;99.90
39017;DHT22;24784;45.582;5.276;2022-08-19T10:11:14;19.80;99.90
39017;DHT22;24784;45.582;5.276;2022-08-19T10:13:41;19.80;99.90
39017;DHT22;24784;45.582;5.276;2022-08-19T10:16:08;20.00;99.90
39017;DHT22;24784;45.582;5.276;2022-08-19T10:18:34;20.00;99.90
39017;DHT22;24784;45.582;5.276;2022-08-19T10:21:08;19.90;99.90
39017;DHT22;24784;45.582;5.276;2022-08-19T10:23:34;19.80;99.90
39017;DHT22;24784;45.582;5.276;2022-08-19T10:26:00;19.60;99.90
39017;DHT22;24784;45.582;5.276;2022-08-19T10:28:25;19.50;99.90
39017;DHT22;24784;45.582;5.276;2022-08-19T10:30:51;19.50;99.90
39017;DHT22;24784;45.582;5.276;2022-08-19T10:33:17;19.40;99.90
39017;DHT22;24784;45.582;5.276;2022-08-19T10:35:43;19.30;99.90
39017;DHT22;24784;45.582;5.276;2022-08-19T10:38:09;19.30;99.90
39017;DHT22;24784;45.582;5.276;2022-08-19T10:40:35;19.20;99.90
39017;DHT22;24784;45.582;5.276;2022-08-19T10:43:00;19.20;99.90
39017;DHT22;24784;45.582;5.276;2022-08-19T10:45:26;19.20;99.90
39017;DHT22;24784;45.582;5.276;2022-08-19T10:47:52;19.30;99.90
39017;DHT22;24784;45.582;5.276;2022-08-19T10:50:18;19.30;99.90
39017;DHT22;24784;45.582;5.276;2022-08-19T10:53:03;19.30;99.90
39017;DHT22;24784;45.582;5.276;2022-08-19T10:55:29;19.20;99.90
39017;DHT22;24784;45.582;5.276;2022-08-19T10:58:14;19.10;99.90
39017;DHT22;24784;45.582;5.276;2022-08-19T11:00:41;19.00;99.90
39017;DHT22;24784;45.582;5.276;2022-08-19T11:03:08;19.00;99.90
39017;DHT22;24784;45.582;5.276;2022-08-19T11:05:33;19.10;99.90
39017;DHT22;24784;45.582;5.276;2022-08-19T11:07:59;19.10;99.90
39017;DHT22;24784;45.582;5.276;2022-08-19T11:15:32;19.00;99.90
39017;DHT22;24784;45.582;5.276;2022-08-19T11:17:58;19.00;99.90
39017;DHT22;24784;45.582;5.276;2022-08-19T11:20:24;19.10;99.90
39017;DHT22;24784;45.582;5.276;2022-08-19T11:22:51;19.00;99.90
39017;DHT22;24784;45.582;5.276;2022-08-19T11:25:17;19.10;99.90
39017;DHT22;24784;45.582;5.276;2022-08-19T11:27:42;19.00;99.90
39017;DHT22;24784;45.582;5.276;2022-08-19T11:30:10;19.00;99.90
39017;DHT22;24784;45.582;5.276;2022-08-19T11:32:39;19.10;99.90
39017;DHT22;24784;45.582;5.276;2022-08-19T11:35:05;19.00;99.90
39017;DHT22;24784;45.582;5.276;2022-08-19T11:37:31;19.00;99.90
39017;DHT22;24784;45.582;5.276;2022-08-19T11:40:04;19.00;99.90
39017;DHT22;24784;45.582;5.276;2022-08-19T11:42:30;19.00;99.90
39017;DHT22;24784;45.582;5.276;2022-08-19T11:45:17;19.00;99.90
39017;DHT22;24784;45.582;5.276;2022-08-19T11:47:45;19.10;99.90
39017;DHT22;24784;45.582;5.276;2022-08-19T11:50:12;19.10;99.90
39017;DHT22;24784;45.582;5.276;2022-08-19T11:52:38;19.20;99.90
39017;DHT22;24784;45.582;5.276;2022-08-19T11:55:04;19.20;99.90
39017;DHT22;24784;45.582;5.276;2022-08-19T11:57:33;19.20;99.90
39017;DHT22;24784;45.582;5.276;2022-08-19T12:00:01;19.20;99.90
39017;DHT22;24784;45.582;5.276;2022-08-19T12:02:29;19.30;99.90
39017;DHT22;24784;45.582;5.276;2022-08-19T12:04:57;19.20;99.90
39017;DHT22;24784;45.582;5.276;2022-08-19T12:07:25;19.20;99.90
39017;DHT22;24784;45.582;5.276;2022-08-19T12:09:51;19.20;99.90
39017;DHT22;24784;45.582;5.276;2022-08-19T12:12:16;19.20;99.90
39017;DHT22;24784;45.582;5.276;2022-08-19T12:14:42;19.20;99.90
39017;DHT22;24784;45.582;5.276;2022-08-19T12:17:08;19.20;99.90
39017;DHT22;24784;45.582;5.276;2022-08-19T12:19:36;19.10;99.90
39017;DHT22;24784;45.582;5.276;2022-08-19T12:22:01;19.10;99.90
39017;DHT22;24784;45.582;5.276;2022-08-19T12:24:32;19.20;99.90
39017;DHT22;24784;45.582;5.276;2022-08-19T12:26:58;19.20;99.90
39017;DHT22;24784;45.582;5.276;2022-08-19T12:29:26;19.20;99.90
39017;DHT22;24784;45.582;5.276;2022-08-19T12:31:55;19.30;99.90
39017;DHT22;24784;45.582;5.276;2022-08-19T12:34:27;19.20;99.90
39017;DHT22;24784;45.582;5.276;2022-08-19T12:36:56;19.20;99.90
39017;DHT22;24784;45.582;5.276;2022-08-19T12:39:21;19.20;99.90
39017;DHT22;24784;45.582;5.276;2022-08-19T12:44:25;19.30;99.90
39017;DHT22;24784;45.582;5.276;2022-08-19T12:46:53;19.40;99.90
39017;DHT22;24784;45.582;5.276;2022-08-19T12:49:19;19.40;99.90
39017;DHT22;24784;45.582;5.276;2022-08-19T12:51:45;19.40;99.90
39017;DHT22;24784;45.582;5.276;2022-08-19T12:54:11;19.40;99.90
39017;DHT22;24784;45.582;5.276;2022-08-19T12:56:37;19.40;99.90
39017;DHT22;24784;45.582;5.276;2022-08-19T12:59:13;19.50;99.90
39017;DHT22;24784;45.582;5.276;2022-08-19T13:01:39;19.50;99.90
39017;DHT22;24784;45.582;5.276;2022-08-19T13:04:06;19.70;99.90
39017;DHT22;24784;45.582;5.276;2022-08-19T13:06:32;19.80;99.90
39017;DHT22;24784;45.582;5.276;2022-08-19T13:08:57;19.80;99.90
39017;DHT22;24784;45.582;5.276;2022-08-19T13:11:31;20.00;99.90
39017;DHT22;24784;45.582;5.276;2022-08-19T13:14:01;19.90;99.90
39017;DHT22;24784;45.582;5.276;2022-08-19T13:16:27;19.80;99.90
39017;DHT22;24784;45.582;5.276;2022-08-19T13:18:53;19.70;99.90
39017;DHT22;24784;45.582;5.276;2022-08-19T13:21:23;19.60;99.90
39017;DHT22;24784;45.582;5.276;2022-08-19T13:23:50;19.60;99.90
39017;DHT22;24784;45.582;5.276;2022-08-19T13:26:23;19.60;99.90
39017;DHT22;24784;45.582;5.276;2022-08-19T13:34:00;19.50;99.90
39017;DHT22;24784;45.582;5.276;2022-08-19T13:36:26;19.50;99.90
39017;DHT22;24784;45.582;5.276;2022-08-19T13:38:54;19.60;99.90
39017;DHT22;24784;45.582;5.276;2022-08-19T13:41:22;19.70;99.90
39017;DHT22;24784;45.582;5.276;2022-08-19T13:43:50;19.50;99.90
39017;DHT22;24784;45.582;5.276;2022-08-19T13:46:16;19.50;99.90
39017;DHT22;24784;45.582;5.276;2022-08-19T13:48:42;19.50;99.90
39017;DHT22;24784;45.582;5.276;2022-08-19T13:51:08;19.50;99.90
39017;DHT22;24784;45.582;5.276;2022-08-19T13:53:37;19.50;99.90
39017;DHT22;24784;45.582;5.276;2022-08-19T13:56:06;19.50;99.90
39017;DHT22;24784;45.582;5.276;2022-08-19T13:58:32;19.60;99.90
39017;DHT22;24784;45.582;5.276;2022-08-19T14:00:58;19.70;99.90
39017;DHT22;24784;45.582;5.276;2022-08-19T14:03:24;19.80;99.90
39017;DHT22;24784;45.582;5.276;2022-08-19T14:05:50;20.00;99.90
39017;DHT22;24784;45.582;5.276;2022-08-19T14:08:16;20.20;99.90
39017;DHT22;24784;45.582;5.276;2022-08-19T14:10:42;20.40;99.90
39017;DHT22;24784;45.582;5.276;2022-08-19T14:13:09;20.90;99.90
39017;DHT22;24784;45.582;5.276;2022-08-19T14:15:42;21.20;99.90
39017;DHT22;24784;45.582;5.276;2022-08-19T14:18:08;21.20;99.90
39017;DHT22;24784;45.582;5.276;2022-08-19T14:20:35;21.20;99.90
39017;DHT22;24784;45.582;5.276;2022-08-19T14:23:03;21.40;99.90
39017;DHT22;24784;45.582;5.276;2022-08-19T14:53:09;22.30;99.90
39017;DHT22;24784;45.582;5.276;2022-08-19T14:55:47;22.50;99.90
39017;DHT22;24784;45.582;5.276;2022-08-19T15:01:12;22.80;99.90
39017;DHT22;24784;45.582;5.276;2022-08-19T15:03:39;22.80;99.90
39017;DHT22;24784;45.582;5.276;2022-08-19T15:06:06;22.90;99.90
39017;DHT22;24784;45.582;5.276;2022-08-19T15:08:33;22.90;99.90
39017;DHT22;24784;45.582;5.276;2022-08-19T15:11:07;22.90;99.90
39017;DHT22;24784;45.582;5.276;2022-08-19T15:13:37;22.80;99.90
39017;DHT22;24784;45.582;5.276;2022-08-19T15:16:14;22.90;99.90
39017;DHT22;24784;45.582;5.276;2022-08-19T15:18:42;22.90;99.90
39017;DHT22;24784;45.582;5.276;2022-08-19T15:21:11;22.90;99.90
39017;DHT22;24784;45.582;5.276;2022-08-19T15:23:40;22.90;99.90
39017;DHT22;24784;45.582;5.276;2022-08-19T15:26:09;22.90;99.90
39017;DHT22;24784;45.582;5.276;2022-08-19T15:33:48;22.90;99.90
39017;DHT22;24784;45.582;5.276;2022-08-19T15:36:35;22.80;99.90
39017;DHT22;24784;45.582;5.276;2022-08-19T15:39:40;22.80;99.90
39017;DHT22;24784;45.582;5.276;2022-08-19T16:36:39;22.60;99.90
39017;DHT22;24784;45.582;5.276;2022-08-19T17:06:27;22.50;99.90
39017;DHT22;24784;45.582;5.276;2022-08-19T17:08:56;22.50;99.90
39017;DHT22;24784;45.582;5.276;2022-08-19T17:13:53;22.70;99.90
39017;DHT22;24784;45.582;5.276;2022-08-19T17:16:21;22.70;99.90
39017;DHT22;24784;45.582;5.276;2022-08-19T17:18:49;22.60;99.90
39017;DHT22;24784;45.582;5.276;2022-08-19T17:21:20;22.60;99.90
39017;DHT22;24784;45.582;5.276;2022-08-19T17:23:46;22.50;99.90
39017;DHT22;24784;45.582;5.276;2022-08-19T18:16:40;20.90;99.90
39017;DHT22;24784;45.582;5.276;2022-08-19T18:19:11;20.90;99.90
39017;DHT22;24784;45.582;5.276;2022-08-19T18:21:45;20.90;99.90
39017;DHT22;24784;45.582;5.276;2022-08-19T18:43:20;20.40;99.90
39017;DHT22;24784;45.582;5.276;2022-08-19T18:46:07;20.30;99.90
39017;DHT22;24784;45.582;5.276;2022-08-19T18:48:52;20.20;99.90
39017;DHT22;24784;45.582;5.276;2022-08-19T18:54:18;20.20;99.90
39017;DHT22;24784;45.582;5.276;2022-08-19T18:56:43;20.20;99.90
39017;DHT22;24784;45.582;5.276;2022-08-19T19:04:12;20.10;99.90
39017;DHT22;24784;45.582;5.276;2022-08-19T19:06:40;20.00;99.90
39017;DHT22;24784;45.582;5.276;2022-08-19T19:09:11;19.90;99.90
39017;DHT22;24784;45.582;5.276;2022-08-19T19:11:39;19.90;99.90
39017;DHT22;24784;45.582;5.276;2022-08-19T19:14:09;19.90;99.90
39017;DHT22;24784;45.582;5.276;2022-08-19T19:16:36;19.80;99.90
39017;DHT22;24784;45.582;5.276;2022-08-19T19:19:02;19.70;99.90
39017;DHT22;24784;45.582;5.276;2022-08-19T19:21:31;19.70;99.90